Flight Track Log - Related Links

Times and Time Zones

All times are in EDT time to prevent confusion due to time zone crossing. See the ASA122 flight status page for this flight to view local times or setup timezone preferences in your user account.

Time Position Orientation Groundspeed Altitude Reporting Facility
EDT Latitude Longitude Course Direction KTS MPH feet Rate Location/Type
Mon 12:57:00 PM 64.7500 -147.9667 124° Southeast 200 230 4,600  Level Anchorage Center
Mon 12:58:01 PM 64.7000 -147.8833 145° Southeast 270 311 7,100 2,727 Climbing Anchorage Center
Mon 12:59:01 PM 64.6667 -147.7333 117° Southeast 280 322 10,100 2,400 Climbing Anchorage Center
Mon 01:00:01 PM 64.6167 -147.5500 122° Southeast 340 391 11,900 2,400 Climbing Anchorage Center
Mon 01:01:01 PM 64.5667 -147.3500 120° Southeast 340 391 14,900 2,800 Climbing Anchorage Center
Mon 01:02:00 PM 64.2986 -146.2290 124° Southeast  Level FlightAware Approximate
Mon 01:02:01 PM 64.5167 -147.1333 118° Southeast 380 437 17,500  Level Anchorage Center
Mon 01:03:01 PM 64.4500 -146.9333 128° Southeast 390 449 20,100 2,300 Climbing Anchorage Center
Mon 01:04:01 PM 64.4000 -146.7167 118° Southeast 410 472 22,100 2,022 Climbing Anchorage Center
Mon 01:06:02 PM 64.2500 -146.2667 127° Southeast 440 506 26,200 1,956 Climbing Anchorage Center
Mon 01:07:02 PM 64.1667 -146.0333 129° Southeast 450 518 28,000 1,750 Climbing Anchorage Center
Mon 01:08:02 PM 64.1000 -145.8167 125° Southeast 460 529 29,700 1,850 Climbing Anchorage Center
Mon 01:09:02 PM 64.0167 -145.5667 127° Southeast 460 529 31,700 1,700 Climbing Anchorage Center
Mon 01:10:02 PM 63.9333 -145.3500 131° Southeast 460 529 33,100 1,200 Climbing Anchorage Center
Mon 01:11:02 PM 63.8500 -145.1333 131° Southeast 460 529 34,100 950 Climbing Anchorage Center
Mon 01:12:02 PM 63.7667 -144.8833 127° Southeast 470 541 35,000 450 Climbing Anchorage Center
Mon 01:13:02 PM 63.7000 -144.6833 127° Southeast 480 552 35,000  Level Anchorage Center
Mon 01:14:02 PM 63.6167 -144.4500 129° Southeast 470 541 35,000  Level Anchorage Center
Mon 01:15:03 PM 63.5333 -144.2167 129° Southeast 470 541 35,000  Level Anchorage Center
Mon 01:16:03 PM 63.4500 -144.0000 131° Southeast 470 541 35,000  Level Anchorage Center
Mon 01:17:03 PM 63.3667 -143.7833 131° Southeast 470 541 35,000  Level Anchorage Center
Mon 01:18:03 PM 63.2833 -143.5500 128° Southeast 470 541 35,000  Level Anchorage Center
Mon 01:19:03 PM 63.2000 -143.3333 130° Southeast 460 529 35,000  Level Anchorage Center
Mon 01:20:04 PM 63.1167 -143.1167 130° Southeast 460 529 35,000  Level Anchorage Center
Mon 01:21:03 PM 63.0167 -142.9000 135° Southeast 460 529 35,000  Level Anchorage Center
Mon 01:22:04 PM 62.9333 -142.6833 130° Southeast 470 541 35,000  Level Anchorage Center
Mon 01:23:04 PM 62.8667 -142.4667 124° Southeast 460 529 35,000  Level Anchorage Center
Mon 01:24:03 PM 62.7833 -142.2333 128° Southeast 470 541 35,000  Level Anchorage Center
Mon 01:25:04 PM 62.6833 -142.0333 137° Southeast 470 541 35,000  Level Anchorage Center
Mon 01:26:04 PM 62.6000 -141.8333 132° Southeast 460 529 35,000  Level Anchorage Center
Mon 01:27:04 PM 62.5167 -141.6167 130° Southeast 470 541 35,000  Level Anchorage Center
Mon 01:28:04 PM 62.4333 -141.4000 130° Southeast 470 541 35,000  Level Anchorage Center
Mon 01:29:04 PM 62.3333 -141.2000 137° Southeast 460 529 35,000  Level Anchorage Center
Mon 01:31:00 PM 62.1651 -140.8392 132° Southeast  Level FlightAware Approximate
Mon 01:38:00 PM 61.5785 -139.5023 132° Southeast  Level FlightAware Approximate
Mon 01:38:35 PM 61.4667 -139.2667 148° Southeast 470 541 35,000  Level Anchorage Center
Mon 01:39:00 PM 61.4937 -139.3155 134° Southeast  Level FlightAware Approximate
Mon 01:39:36 PM 61.3833 -139.0833 133° Southeast 470 541 35,000  Level Anchorage Center
Mon 01:40:00 PM 61.4086 -139.1297 134° Southeast  Level FlightAware Approximate
Mon 01:40:36 PM 61.2833 -138.9000 139° Southeast 470 541 35,000  Level Anchorage Center
Mon 01:41:00 PM 61.3210 -138.9505 148° Southeast  Level FlightAware Approximate
Mon 01:41:35 PM 61.1667 -138.7667 151° Southeast 470 541 35,000  Level Anchorage Center
Mon 01:42:00 PM 61.2168 -138.8147 148° Southeast  Level FlightAware Approximate
Mon 01:42:36 PM 61.0500 -138.6167 148° Southeast 470 541 35,000  Level Anchorage Center
Mon 01:43:00 PM 61.1124 -138.6797 148° Southeast  Level FlightAware Approximate
Mon 01:43:36 PM 60.9500 -138.4833 147° Southeast 470 541 35,000  Level Anchorage Center
Mon 01:44:36 PM 60.8333 -138.3333 148° Southeast 470 541 35,000  Level Anchorage Center
Mon 01:45:36 PM 60.7167 -138.2000 151° Southeast 470 541 35,000  Level Anchorage Center
Mon 01:46:36 PM 60.6000 -138.0500 148° Southeast 470 541 35,000  Level Anchorage Center
Mon 01:47:36 PM 60.5000 -137.9167 147° Southeast 470 541 35,000  Level Anchorage Center
Mon 01:48:36 PM 60.4000 -137.8000 150° Southeast 470 541 35,000  Level Anchorage Center
Mon 01:49:36 PM 60.3000 -137.6667 147° Southeast 470 541 35,000  Level Anchorage Center
Mon 01:50:37 PM 60.1833 -137.5333 150° Southeast 470 541 35,000  Level Anchorage Center
Mon 01:51:37 PM 60.0667 -137.4000 150° Southeast 470 541 35,000  Level Anchorage Center
Mon 01:52:37 PM 59.9500 -137.2667 150° Southeast 470 541 35,000  Level Anchorage Center
Mon 01:53:37 PM 59.8500 -137.1167 143° Southeast 470 541 35,000  Level Anchorage Center
Mon 01:54:37 PM 59.7333 -137.0000 153° Southeast 460 529 35,000  Level Anchorage Center
Mon 01:55:37 PM 59.6167 -136.8500 147° Southeast 470 541 35,000  Level Anchorage Center
Mon 01:56:37 PM 59.5000 -136.7333 153° Southeast 480 552 35,000  Level Anchorage Center
Mon 01:57:38 PM 59.3833 -136.5833 147° Southeast 480 552 35,000  Level Anchorage Center
Mon 01:58:37 PM 59.2667 -136.4500 150° Southeast 480 552 35,000  Level Anchorage Center
Mon 01:59:37 PM 59.1667 -136.3333 149° Southeast 480 552 35,000  Level Anchorage Center
Mon 02:00:38 PM 59.0500 -136.2000 150° Southeast 470 541 35,000  Level Anchorage Center
Mon 02:01:38 PM 58.9333 -136.0667 149° Southeast 480 552 35,000  Level Anchorage Center
Mon 02:02:38 PM 58.8000 -135.9333 153° Southeast 480 552 35,000  Level Anchorage Center
Mon 02:03:38 PM 58.6833 -135.8000 149° Southeast 480 552 35,000  Level Anchorage Center
Mon 02:04:38 PM 58.5667 -135.6833 152° Southeast 470 541 35,000  Level Anchorage Center
Mon 02:05:38 PM 58.4500 -135.5500 149° Southeast 480 552 35,000  Level Anchorage Center
Mon 02:06:38 PM 58.3333 -135.4333 152° Southeast 480 552 35,000  Level Anchorage Center
Mon 02:07:38 PM 58.2167 -135.3000 149° Southeast 480 552 35,000  Level Anchorage Center
Mon 02:08:38 PM 58.1167 -135.1667 145° Southeast 470 541 35,000  Level Anchorage Center
Mon 02:09:39 PM 58.0333 -135.0167 136° Southeast 480 552 35,000  Level Anchorage Center
Mon 02:10:39 PM 57.9333 -134.8500 138° Southeast 480 552 35,000  Level Anchorage Center
Mon 02:11:39 PM 57.8333 -134.6833 138° Southeast 490 564 35,000  Level Anchorage Center
Mon 02:12:39 PM 57.7333 -134.5167 138° Southeast 480 552 35,000  Level Anchorage Center
Mon 02:13:39 PM 57.6167 -134.3500 143° Southeast 490 564 35,000  Level Anchorage Center
Mon 02:14:39 PM 57.5167 -134.1833 138° Southeast 480 552 35,000  Level Anchorage Center
Mon 02:15:40 PM 57.4167 -134.0333 141° Southeast 480 552 35,000  Level Anchorage Center
Mon 02:16:40 PM 57.3167 -133.8667 138° Southeast 490 564 35,000  Level Anchorage Center
Mon 02:17:39 PM 57.2167 -133.7000 138° Southeast 490 564 35,000  Level Anchorage Center
Mon 02:18:39 PM 57.1167 -133.5500 141° Southeast 490 564 35,000  Level Anchorage Center
Mon 02:19:40 PM 57.0167 -133.3833 138° Southeast 480 552 35,000  Level Anchorage Center
Mon 02:20:40 PM 56.9000 -133.2333 145° Southeast 480 552 35,000  Level Anchorage Center
Mon 02:21:40 PM 56.8000 -133.0667 138° Southeast 490 564 35,000  Level Anchorage Center
Mon 02:22:40 PM 56.7000 -132.9000 138° Southeast 490 564 35,000  Level Anchorage Center
Mon 02:23:40 PM 56.6000 -132.7500 140° Southeast 490 564 35,000  Level Anchorage Center
Mon 02:24:40 PM 56.4833 -132.6000 145° Southeast 490 564 35,000  Level Anchorage Center
Mon 02:25:41 PM 56.3833 -132.4333 137° Southeast 490 564 35,000  Level Anchorage Center
Mon 02:26:41 PM 56.2833 -132.2833 140° Southeast 480 552 35,000  Level Anchorage Center
Mon 02:27:41 PM 56.1667 -132.1333 144° Southeast 490 564 35,000  Level Anchorage Center
Mon 02:28:41 PM 56.0667 -131.9833 140° Southeast 500 575 35,000  Level Anchorage Center
Mon 02:29:41 PM 55.9667 -131.8167 137° Southeast 500 575 35,000  Level Anchorage Center
Mon 02:30:41 PM 55.8500 -131.6667 144° Southeast 490 564 35,000  Level Anchorage Center
Mon 02:31:41 PM 55.7333 -131.5000 141° Southeast 500 575 35,000  Level Anchorage Center
Mon 02:32:41 PM 55.6167 -131.3333 141° Southeast 510 587 35,000  Level Anchorage Center
Mon 02:33:41 PM 55.5167 -131.2000 143° Southeast 500 575 35,000  Level Anchorage Center
Mon 02:34:41 PM 55.4167 -131.0500 140° Southeast 500 575 35,000 -250 Level Anchorage Center
Mon 02:35:41 PM 55.3000 -130.9000 144° Southeast 500 575 34,500 -744 Descending Anchorage Center
Mon 02:36:42 PM 55.2000 -130.7500 139° Southeast 500 575 33,500 -744 Descending Anchorage Center
Mon 02:37:42 PM 55.0833 -130.6000 144° Southeast 500 575 33,000 -250 Descending Anchorage Center
Mon 02:38:42 PM 54.9833 -130.4667 143° Southeast 500 575 33,000  Level Anchorage Center
Mon 02:39:47 PM 54.8667 -130.3500 150° Southeast 490 564 33,000  Level Vancouver Center
Mon 02:40:47 PM 54.7500 -130.1833 140° Southeast 490 564 33,000  Level Vancouver Center
Mon 02:41:47 PM 54.6333 -130.0500 146° Southeast 500 575 33,000  Level Vancouver Center
Mon 02:42:47 PM 54.5333 -129.9000 139° Southeast 500 575 33,000  Level Vancouver Center
Mon 02:43:47 PM 54.4000 -129.7667 150° Southeast 500 575 33,000  Level Vancouver Center
Mon 02:44:47 PM 54.3167 -129.6333 137° Southeast 500 575 33,000  Level Vancouver Center
Mon 02:45:47 PM 54.1833 -129.4667 144° Southeast 500 575 33,000  Level Vancouver Center
Mon 02:46:47 PM 54.0667 -129.3500 150° Southeast 500 575 33,000  Level Vancouver Center
Mon 02:47:47 PM 53.9833 -129.1833 130° Southeast 500 575 33,000  Level Vancouver Center
Mon 02:48:47 PM 53.8500 -129.0667 153° Southeast 500 575 33,000  Level Vancouver Center
Mon 02:49:47 PM 53.7333 -128.9000 140° Southeast 500 575 33,000  Level Vancouver Center
Mon 02:50:47 PM 53.6333 -128.7833 145° Southeast 510 587 33,000  Level Vancouver Center
Mon 02:51:47 PM 53.5167 -128.6333 143° Southeast 510 587 33,000  Level Vancouver Center
Mon 02:52:47 PM 53.4000 -128.5000 146° Southeast 490 564 33,000  Level Vancouver Center
Mon 02:53:47 PM 53.3000 -128.3500 138° Southeast 520 598 33,000  Level Vancouver Center
Mon 02:54:47 PM 53.1833 -128.2333 149° Southeast 500 575 33,000  Level Vancouver Center
Mon 02:55:47 PM 53.0500 -128.0833 146° Southeast 510 587 33,000  Level Vancouver Center
Mon 02:56:47 PM 52.9333 -127.9500 145° Southeast 510 587 33,000  Level Vancouver Center
Mon 02:57:47 PM 52.8333 -127.8000 138° Southeast 500 575 33,000  Level Vancouver Center
Mon 02:58:47 PM 52.7167 -127.6500 142° Southeast 510 587 33,000  Level Vancouver Center
Mon 02:59:47 PM 52.6000 -127.5333 149° Southeast 510 587 33,000  Level Vancouver Center
Mon 03:00:47 PM 52.4667 -127.3833 146° Southeast 510 587 33,000  Level Vancouver Center
Mon 03:01:47 PM 52.3667 -127.2667 145° Southeast 510 587 33,000  Level Vancouver Center
Mon 03:02:47 PM 52.2500 -127.1500 149° Southeast 510 587 33,000  Level Vancouver Center
Mon 03:03:47 PM 52.1333 -127.0000 142° Southeast 510 587 33,000  Level Vancouver Center
Mon 03:04:47 PM 52.0167 -126.8833 148° Southeast 520 598 33,000  Level Vancouver Center
Mon 03:05:47 PM 51.8833 -126.7500 148° Southeast 510 587 33,000  Level Vancouver Center
Mon 03:06:47 PM 51.7833 -126.6000 137° Southeast 510 587 33,000  Level Vancouver Center
Mon 03:07:47 PM 51.6500 -126.4833 151° Southeast 510 587 33,000  Level Vancouver Center
Mon 03:08:47 PM 51.5333 -126.3500 145° Southeast 510 587 33,000  Level Vancouver Center
Mon 03:09:47 PM 51.4167 -126.2333 148° Southeast 510 587 33,000  Level Vancouver Center
Mon 03:10:47 PM 51.3000 -126.1000 144° Southeast 520 598 33,000  Level Vancouver Center
Mon 03:11:47 PM 51.1833 -125.9833 148° Southeast 520 598 33,000  Level Vancouver Center
Mon 03:12:47 PM 51.0500 -125.8500 148° Southeast 520 598 33,000  Level Vancouver Center
Mon 03:13:47 PM 50.9500 -125.7000 137° Southeast 520 598 33,000  Level Vancouver Center
Mon 03:14:47 PM 50.8167 -125.5667 148° Southeast 520 598 33,000  Level Vancouver Center
Mon 03:15:47 PM 50.7000 -125.4667 151° Southeast 520 598 33,000  Level Vancouver Center
Mon 03:16:47 PM 50.5833 -125.3500 148° Southeast 520 598 33,000  Level Vancouver Center
Mon 03:17:47 PM 50.4667 -125.2167 144° Southeast 520 598 33,000  Level Vancouver Center
Mon 03:18:47 PM 50.3333 -125.0833 147° Southeast 520 598 33,000  Level Vancouver Center
Mon 03:19:47 PM 50.2167 -124.9500 144° Southeast 520 598 33,000  Level Vancouver Center
Mon 03:20:47 PM 50.0833 -124.8333 151° Southeast 520 598 33,000  Level Vancouver Center
Mon 03:21:47 PM 49.9667 -124.7000 144° Southeast 530 610 33,000  Level Vancouver Center
Mon 03:22:47 PM 49.8333 -124.5833 151° Southeast 530 610 33,000  Level Vancouver Center
Mon 03:23:47 PM 49.7167 -124.4667 147° Southeast 530 610 33,000  Level Vancouver Center
Mon 03:24:47 PM 49.6000 -124.3333 143° Southeast 540 621 33,000  Level Vancouver Center
Mon 03:25:47 PM 49.4667 -124.2167 150° Southeast 530 610 33,000  Level Vancouver Center
Mon 03:26:47 PM 49.3500 -124.1000 147° Southeast 530 610 33,000  Level Vancouver Center
Mon 03:27:47 PM 49.2167 -123.9833 150° Southeast 540 621 33,000  Level Vancouver Center
Mon 03:28:47 PM 49.0833 -123.8500 147° Southeast 540 621 33,000  Level Vancouver Center
Mon 03:29:47 PM 48.9500 -123.7167 147° Southeast 540 621 33,000 -150 Level Vancouver Center
Mon 03:30:47 PM 48.8333 -123.6000 147° Southeast 540 621 32,700 -2,150 Descending Vancouver Center
Mon 03:31:47 PM 48.7000 -123.4667 147° Southeast 540 621 28,700 -3,500 Descending Vancouver Center
Mon 03:32:47 PM 48.5833 -123.3667 150° Southeast 540 621 25,700 -2,800 Descending Vancouver Center
Mon 03:33:47 PM 48.4667 -123.2667 150° Southeast 490 564 23,100 -2,600 Descending Vancouver Center
Mon 03:34:47 PM 48.3667 -123.1667 146° Southeast 470 541 20,500 -2,189 Descending Vancouver Center
Mon 03:36:15 PM 48.2381 -123.0322 145° Southeast 439 505 17,700 -2,134 Descending Seattle Center
Mon 03:37:16 PM 48.1411 -122.9442 149° Southeast 412 474 15,200 -2,492 Descending Seattle Center
Mon 03:38:13 PM 48.0461 -122.8542 148° Southeast 363 418 12,800 -1,820 Descending Seattle Center
Mon 03:39:18 PM 47.9825 -122.7333 128° Southeast 331 381 11,500 -1,377 Descending Seattle Center
Mon 03:40:15 PM 47.9294 -122.6336 128° Southeast 317 365 10,000 -1,525 Descending Seattle Center
Mon 03:41:16 PM 47.8775 -122.5403 130° Southeast 288 331 8,500 -1,328 Descending Seattle Center
Mon 03:42:17 PM 47.8256 -122.4567 133° Southeast 263 303 7,300 -1,537 Descending Seattle Center
Mon 03:43:17 PM 47.7642 -122.3983 147° Southeast 266 306 5,400 -1,240 Descending Seattle Center
Mon 03:44:18 PM 47.7097 -122.3592 154° Southeast 193 222 4,800 -1,082 Descending Seattle Center
Mon 03:45:19 PM 47.6575 -122.3189 153° Southeast 206 237 3,200 -1,180 Descending Seattle Center
Mon 03:46:20 PM 47.6039 -122.3092 173° South 186 214 2,400 -672 Descending Seattle Center
Mon 03:47:15 PM 47.5617 -122.3094 180° South 176 203 1,900 -414 Descending Seattle Center
Mon 03:48:16 PM 47.5131 -122.3100 180° South 162 186 1,600 -563 Descending Seattle Center
Mon 03:49:23 PM 47.4733 -122.3122 182° South 127 146 700 -496 Descending Seattle Center
Mon 03:50:29 PM 47.4308 -122.3125 180° South 130 150 500 -182 Descending Seattle Center

Login

Don't have an account? Register now (free) for customized features, flight alerts, and more!